Time;durP1;ratioP1;P1;durP2;ratioP2;P2;SDS_P1;SDS_P2;PMS_P1;PMS_P2;Temp;Humidity;BMP_temperature;BMP_pressure;BME280_temperature;BME280_humidity;BME280_pressure;Samples;Min_cycle;Max_cycle;Signal;HPM_P1;HPM_P2
2021/01/17 00:02:13;;;;;;;1.30;1.30;;;;;;;-1.67;100.00;101052.50;4401673;32;20083;-73
2021/01/17 00:04:39;;;;;;;1.10;1.10;;;;;;;-1.66;100.00;101048.88;4400436;32;20689;-71
2021/01/17 00:07:04;;;;;;;1.30;1.30;;;;;;;-1.75;100.00;101033.87;4390539;32;20099;-70
2021/01/17 00:09:30;;;;;;;1.30;1.30;;;;;;;-1.68;100.00;101044.75;4413693;32;20072;-71
2021/01/17 00:11:55;;;;;;;1.48;1.48;;;;;;;-1.71;100.00;101030.91;4390066;32;20215;-71
2021/01/17 00:14:21;;;;;;;1.27;1.27;;;;;;;-1.70;100.00;101037.00;4416715;32;20083;-71
2021/01/17 00:16:46;;;;;;;2.62;2.45;;;;;;;-1.79;100.00;101021.97;4406860;32;20806;-70
2021/01/17 00:19:11;;;;;;;1.62;1.62;;;;;;;-1.75;100.00;101028.66;4403109;32;20796;-71
2021/01/17 00:21:44;;;;;;;1.77;1.67;;;;;;;-1.71;100.00;101025.66;4401764;32;20091;-72
2021/01/17 00:24:09;;;;;;;1.40;1.40;;;;;;;-1.66;100.00;101021.84;4411436;32;20069;-70
2021/01/17 00:26:36;;;;;;;2.05;1.95;;;;;;;-1.69;100.00;101017.69;4418021;32;20068;-71
2021/01/17 00:29:01;;;;;;;1.50;1.50;;;;;;;-1.68;100.00;101019.34;4399545;32;20728;-71
2021/01/17 00:31:26;;;;;;;1.30;1.30;;;;;;;-2.42;100.00;100891.44;4413241;32;20415;-71
2021/01/17 00:33:52;;;;;;;1.40;1.40;;;;;;;-1.65;100.00;101007.78;4406831;32;20092;-71
2021/01/17 00:36:17;;;;;;;1.45;1.45;;;;;;;-1.66;100.00;101006.94;4407077;32;20589;-71
2021/01/17 00:38:43;;;;;;;1.33;1.33;;;;;;;-1.66;100.00;101006.09;4399032;32;20064;-71
2021/01/17 00:41:08;;;;;;;1.25;1.25;;;;;;;-1.75;100.00;100992.75;4405536;32;20088;-71
2021/01/17 00:43:33;;;;;;;1.30;1.30;;;;;;;-1.67;100.00;101000.03;4411982;32;20591;-71
2021/01/17 00:46:01;;;;;;;1.40;1.40;;;;;;;-1.68;100.00;101002.78;4406354;32;20074;-71
2021/01/17 00:48:27;;;;;;;1.92;1.83;;;;;;;-1.64;100.00;101005.00;4402362;32;20088;-72
2021/01/17 00:50:53;;;;;;;1.30;1.30;;;;;;;-1.66;100.00;101006.94;4414239;32;20088;-71
2021/01/17 00:53:18;;;;;;;1.40;1.40;;;;;;;-1.64;100.00;101005.00;4406568;32;20741;-71
2021/01/17 00:55:44;;;;;;;1.30;1.30;;;;;;;-1.67;100.00;100999.19;4403182;32;20099;-71
2021/01/17 00:58:09;;;;;;;1.30;1.30;;;;;;;-1.58;100.00;101006.34;4407264;32;20102;-71
2021/01/17 01:00:34;;;;;;;1.20;1.20;;;;;;;-1.56;100.00;100996.56;4410151;32;20088;-71
2021/01/17 01:03:00;;;;;;;1.30;1.30;;;;;;;-1.62;100.00;100991.78;4418170;32;20068;-71
2021/01/17 01:05:25;;;;;;;1.77;1.67;;;;;;;-1.54;100.00;101000.69;4418624;32;20056;-71
2021/01/17 01:07:51;;;;;;;2.50;2.30;;;;;;;-1.61;100.00;100982.97;4413051;32;20068;-71
2021/01/17 01:10:16;;;;;;;1.40;1.40;;;;;;;-1.65;100.00;100982.37;4406067;32;20656;-71
2021/01/17 01:12:42;;;;;;;1.25;1.25;;;;;;;-1.51;100.00;101000.47;4417951;32;20448;-71
2021/01/17 01:15:08;;;;;;;1.27;1.27;;;;;;;-1.48;100.00;101003.78;4405289;32;20623;-70
2021/01/17 01:17:33;;;;;;;1.20;1.20;;;;;;;-1.45;100.00;101000.94;4402754;32;20102;-70
2021/01/17 01:19:59;;;;;;;1.70;1.70;;;;;;;-1.47;100.00;101005.47;4398056;32;20082;-71
2021/01/17 01:22:24;;;;;;;1.20;1.20;;;;;;;-1.45;100.00;101006.19;4403726;32;20459;-71
2021/01/17 01:24:49;;;;;;;1.40;1.40;;;;;;;-1.68;100.00;100972.13;4407849;32;20494;-71
2021/01/17 01:27:15;;;;;;;1.40;1.40;;;;;;;-1.45;100.00;101006.19;4404128;32;20540;-71
2021/01/17 01:29:40;;;;;;;1.30;1.30;;;;;;;-1.47;100.00;101002.84;4409865;32;20089;-71
2021/01/17 01:32:06;;;;;;;1.40;1.40;;;;;;;-1.47;100.00;101011.53;4403599;32;20573;-72
2021/01/17 01:34:31;;;;;;;1.90;1.80;;;;;;;-1.46;100.00;101007.16;4404183;32;20797;-71
2021/01/17 01:36:57;;;;;;;2.58;2.47;;;;;;;-1.45;100.00;101006.19;4404956;32;20645;-71
2021/01/17 01:39:22;;;;;;;1.20;1.20;;;;;;;-1.46;100.00;101001.91;4410647;32;20444;-71
2021/01/17 01:41:47;;;;;;;1.90;1.80;;;;;;;-1.48;100.00;100999.41;4405292;32;20068;-71
2021/01/17 01:44:13;;;;;;;1.30;1.30;;;;;;;-1.51;100.00;100994.41;4412820;32;20083;-71
2021/01/17 01:46:40;;;;;;;1.40;1.40;;;;;;;-1.53;100.00;100991.06;4407775;32;20083;-72
2021/01/17 01:49:05;;;;;;;1.90;1.80;;;;;;;-1.53;100.00;100999.75;4407562;32;20095;-71
2021/01/17 01:51:31;;;;;;;2.12;2.03;;;;;;;-1.56;100.00;100992.13;4404620;32;20849;-71
2021/01/17 01:53:57;;;;;;;1.40;1.40;;;;;;;-2.31;100.00;100874.84;4405410;32;20115;-71
2021/01/17 01:56:26;;;;;;;1.75;1.73;;;;;;;-1.52;100.00;101004.06;4404141;32;20079;-71
2021/01/17 01:58:52;;;;;;;1.40;1.40;;;;;;;-1.59;100.00;101007.28;4405376;32;20503;-71
2021/01/17 02:01:17;;;;;;;1.30;1.30;;;;;;;-1.76;100.00;100964.88;4407126;32;20590;-71
2021/01/17 02:03:46;;;;;;;1.20;1.20;;;;;;;-1.57;100.00;101003.59;4410778;32;20444;-72
2021/01/17 02:06:12;;;;;;;1.30;1.30;;;;;;;-1.55;100.00;100993.81;4404627;32;20068;-71
2021/01/17 02:08:46;;;;;;;2.67;2.47;;;;;;;-1.52;100.00;100990.94;4404031;32;20105;-71
2021/01/17 02:11:30;;;;;;;1.20;1.20;;;;;;;-1.53;100.00;100986.63;4399984;32;20648;-71
2021/01/17 02:14:20;;;;;;;1.30;1.30;;;;;;;-1.54;100.00;100992.00;4435818;32;20073;-71
2021/01/17 02:16:46;;;;;;;1.30;1.30;;;;;;;-1.52;100.00;100990.94;4425317;32;20182;-71
2021/01/17 02:19:13;;;;;;;3.22;1.87;;;;;;;-1.49;100.00;100991.66;4403293;32;20072;-71
2021/01/17 02:21:40;;;;;;;1.27;1.27;;;;;;;-1.47;100.00;100992.34;4405146;32;20608;-71
2021/01/17 02:24:11;;;;;;;1.42;1.42;;;;;;;-1.47;100.00;100984.47;4400508;32;20072;-72
2021/01/17 02:26:38;;;;;;;1.20;1.20;;;;;;;-1.47;100.00;100990.56;4408839;32;20088;-71
2021/01/17 02:29:04;;;;;;;1.30;1.30;;;;;;;-1.74;100.00;100949.84;4402878;32;20088;-71
2021/01/17 02:31:29;;;;;;;2.03;1.80;;;;;;;-1.56;100.00;100986.06;4404511;32;20130;-72
2021/01/17 02:33:55;;;;;;;1.40;1.40;;;;;;;-1.57;100.00;100987.84;4409333;32;20462;-71
2021/01/17 02:36:45;;;;;;;1.50;1.50;;;;;;;-1.54;100.00;100990.22;4402086;32;20855;-71
2021/01/17 02:39:10;;;;;;;1.30;1.30;;;;;;;-1.51;100.00;100983.91;4431549;32;20085;-71
2021/01/17 02:42:02;;;;;;;1.30;1.30;;;;;;;-1.52;100.00;100983.06;4429382;32;20096;-72
2021/01/17 02:44:32;;;;;;;1.75;1.65;;;;;;;-1.49;100.00;100984.59;4418480;32;20084;-71
2021/01/17 02:46:58;;;;;;;1.30;1.30;;;;;;;-1.46;100.00;100986.16;4414026;32;20064;-72
2021/01/17 02:49:23;;;;;;;1.40;1.40;;;;;;;-1.45;100.00;100979.94;4402765;32;20082;-72
2021/01/17 02:51:49;;;;;;;1.30;1.30;;;;;;;-1.47;100.00;100984.47;4419042;32;20546;-71
2021/01/17 02:54:21;;;;;;;1.40;1.40;;;;;;;-1.46;100.00;100981.75;4403275;32;20118;-72
2021/01/17 02:56:50;;;;;;;1.35;1.35;;;;;;;-1.45;100.00;100983.41;4415147;32;20072;-72
2021/01/17 02:59:15;;;;;;;1.60;1.60;;;;;;;-1.50;100.00;100969.84;4404734;32;20080;-72
2021/01/17 03:01:41;;;;;;;1.20;1.20;;;;;;;-1.65;100.00;100940.41;4417746;32;20090;-71
2021/01/17 03:04:50;;;;;;;1.30;1.30;;;;;;;-1.43;100.00;100972.78;4414234;32;20206;-71
2021/01/17 03:07:17;;;;;;;1.30;1.30;;;;;;;-1.51;100.00;100965.53;4408993;32;20069;-71
2021/01/17 03:09:42;;;;;;;1.30;1.30;;;;;;;-1.78;100.00;100935.31;4408805;32;20107;-71
2021/01/17 03:12:08;;;;;;;1.75;1.70;;;;;;;-1.57;100.00;100977.38;4405900;32;20084;-71
2021/01/17 03:14:37;;;;;;;1.45;1.45;;;;;;;-1.94;100.00;100935.69;4401702;32;20092;-71
2021/01/17 03:17:04;;;;;;;1.40;1.40;;;;;;;-1.61;100.00;100980.34;4401932;32;20072;-71
2021/01/17 03:19:29;;;;;;;1.30;1.30;;;;;;;-1.60;100.00;100974.16;4406913;32;20080;-71
2021/01/17 03:21:54;;;;;;;1.35;1.35;;;;;;;-1.64;100.00;100968.28;4399999;32;21018;-71
2021/01/17 03:24:20;;;;;;;1.30;1.30;;;;;;;-1.80;100.00;100952.94;4407410;32;20064;-71
2021/01/17 03:26:45;;;;;;;1.33;1.33;;;;;;;-2.42;100.00;100853.94;4400394;32;20081;-71
2021/01/17 03:29:10;;;;;;;1.30;1.30;;;;;;;-1.67;100.00;100976.44;4402479;32;20165;-71
2021/01/17 03:31:36;;;;;;;1.42;1.42;;;;;;;-1.70;100.00;100969.63;4412196;32;20069;-71
2021/01/17 03:34:01;;;;;;;1.45;1.45;;;;;;;-1.65;100.00;100989.44;4400442;32;20069;-70
2021/01/17 03:36:27;;;;;;;1.30;1.30;;;;;;;-1.67;100.00;100989.53;4397332;32;20958;-71
2021/01/17 03:38:52;;;;;;;1.65;1.62;;;;;;;-1.78;100.00;100976.44;4410050;32;20561;-71
2021/01/17 03:41:17;;;;;;;1.20;1.20;;;;;;;-1.72;100.00;100968.09;4405733;32;20076;-72
2021/01/17 03:43:43;;;;;;;1.30;1.30;;;;;;;-1.67;100.00;100965.09;4399110;32;20076;-72
2021/01/17 03:46:08;;;;;;;2.83;2.70;;;;;;;-1.60;100.00;100974.97;4404148;32;20100;-71
2021/01/17 03:48:34;;;;;;;1.50;1.50;;;;;;;-1.89;100.00;100924.84;4405965;32;20134;-71
2021/01/17 03:50:59;;;;;;;1.37;1.37;;;;;;;-1.54;100.00;100982.34;4407703;32;20079;-70
2021/01/17 03:53:24;;;;;;;1.33;1.33;;;;;;;-1.53;100.00;100980.56;4416338;32;20130;-71
2021/01/17 03:55:50;;;;;;;1.30;1.30;;;;;;;-1.56;100.00;100971.12;4418973;32;20137;-70
2021/01/17 03:58:15;;;;;;;1.10;1.10;;;;;;;-1.55;100.00;100972.81;4401354;32;20640;-71
2021/01/17 04:00:40;;;;;;;1.40;1.40;;;;;;;-1.57;100.00;100966.88;4420892;32;20064;-71
2021/01/17 04:03:06;;;;;;;1.65;1.55;;;;;;;-1.58;100.00;100970.44;4409495;32;20130;-71
2021/01/17 04:05:31;;;;;;;1.73;1.73;;;;;;;-1.59;100.00;100974.00;4413829;32;20620;-71
2021/01/17 04:07:57;;;;;;;1.55;1.55;;;;;;;-1.58;100.00;100975.69;4415715;32;20100;-71
2021/01/17 04:10:22;;;;;;;1.30;1.30;;;;;;;-1.56;100.00;100973.75;4405895;32;20926;-70
2021/01/17 04:12:48;;;;;;;1.62;1.62;;;;;;;-1.83;100.00;100920.91;4398164;32;20061;-71
2021/01/17 04:15:13;;;;;;;1.40;1.40;;;;;;;-1.57;100.00;100966.88;4406717;32;20081;-71
2021/01/17 04:17:38;;;;;;;1.30;1.30;;;;;;;-1.55;100.00;100970.19;4408432;32;20073;-71
2021/01/17 04:20:04;;;;;;;1.30;1.30;;;;;;;-1.55;100.00;100970.19;4401665;32;20072;-72
2021/01/17 04:22:30;;;;;;;1.30;1.30;;;;;;;-1.56;100.00;100970.31;4406031;32;20073;-71
2021/01/17 04:24:55;;;;;;;1.55;1.55;;;;;;;-1.55;100.00;100972.00;4406625;32;20627;-72
2021/01/17 04:27:21;;;;;;;1.35;1.35;;;;;;;-1.58;100.00;100957.31;4415989;32;20084;-71
2021/01/17 04:29:46;;;;;;;1.35;1.35;;;;;;;-1.57;100.00;100959.00;4411753;32;20083;-71
2021/01/17 04:32:12;;;;;;;1.30;1.30;;;;;;;-1.56;100.00;100981.63;4409019;32;20149;-72
2021/01/17 04:34:37;;;;;;;1.20;1.20;;;;;;;-1.58;100.00;100965.19;4410743;32;20948;-71
2021/01/17 04:37:02;;;;;;;1.45;1.45;;;;;;;-1.55;100.00;100961.50;4403623;32;20094;-70
2021/01/17 04:39:28;;;;;;;1.33;1.33;;;;;;;-1.54;100.00;100958.72;4403376;32;20084;-71
2021/01/17 04:41:56;;;;;;;1.75;1.75;;;;;;;-1.53;100.00;100955.16;4416049;32;20092;-71
2021/01/17 04:44:21;;;;;;;1.65;1.65;;;;;;;-1.52;100.00;100955.97;4405709;32;20068;-71
2021/01/17 04:46:46;;;;;;;1.75;1.65;;;;;;;-1.51;100.00;100958.50;4407514;32;20068;-71
2021/01/17 04:49:12;;;;;;;1.52;1.52;;;;;;;-1.51;100.00;100955.87;4413971;32;20092;-72
2021/01/17 04:51:37;;;;;;;1.77;1.67;;;;;;;-1.49;100.00;100965.41;4411384;32;20829;-71
2021/01/17 04:54:04;;;;;;;1.40;1.40;;;;;;;-1.49;100.00;100968.03;4403025;32;20615;-71
2021/01/17 04:56:45;;;;;;;1.40;1.40;;;;;;;-1.48;100.00;100967.91;4400351;32;20068;-71
2021/01/17 04:59:14;;;;;;;1.20;1.20;;;;;;;-1.44;100.00;100973.75;4413432;32;20048;-71
2021/01/17 05:01:46;;;;;;;1.20;1.20;;;;;;;-1.44;100.00;100965.87;4403324;32;20337;-71
2021/01/17 05:04:40;;;;;;;4.30;2.58;;;;;;;-1.45;100.00;100978.19;4425552;32;20609;-71
2021/01/17 05:07:16;;;;;;;1.20;1.20;;;;;;;-1.46;100.00;100986.16;4417256;32;20600;-71
2021/01/17 05:09:48;;;;;;;1.40;1.40;;;;;;;-1.45;100.00;100988.66;4416973;32;20079;-71
2021/01/17 05:12:14;;;;;;;;;;;;;;;-1.41;100.00;100989.25;4413491;32;20091;-71
2021/01/17 05:14:52;;;;;;;1.10;1.10;;;;;;;-1.38;100.00;100987.22;4415435;32;19983;-71
2021/01/17 05:17:21;;;;;;;1.40;1.40;;;;;;;-1.40;100.00;100983.03;4414310;32;20480;-74
2021/01/17 05:19:46;;;;;;;1.20;1.20;;;;;;;-1.41;100.00;100976.97;4416626;32;20076;-71
2021/01/17 05:22:12;;;;;;;1.30;1.30;;;;;;;-1.40;100.00;100977.78;4416263;32;20091;-71
2021/01/17 05:24:37;;;;;;;1.40;1.40;;;;;;;-1.43;100.00;100971.00;4406231;32;20125;-71
2021/01/17 05:27:03;;;;;;;1.30;1.30;;;;;;;-1.43;100.00;100988.50;4403897;32;20091;-71
2021/01/17 05:29:29;;;;;;;1.30;1.30;;;;;;;-1.45;100.00;100967.69;4401566;32;20778;-71
2021/01/17 05:31:59;;;;;;;1.40;1.40;;;;;;;-1.59;100.00;100946.94;4404682;32;20135;-71
2021/01/17 05:34:25;;;;;;;1.30;1.30;;;;;;;-1.46;100.00;100970.41;4400319;32;20084;-71
2021/01/17 05:37:08;;;;;;;1.50;1.50;;;;;;;-1.48;100.00;100965.28;4401702;32;20682;-72
2021/01/17 05:40:09;;;;;;;1.30;1.30;;;;;;;-1.47;100.00;100964.31;4420862;32;20088;-72
2021/01/17 05:42:41;;;;;;;1.20;1.20;;;;;;;-1.51;100.00;100962.91;4347015;32;20566;-71
2021/01/17 05:45:21;;;;;;;1.40;1.40;;;;;;;-1.51;100.00;100968.97;4394238;32;20049;-71
2021/01/17 05:48:00;;;;;;;1.10;1.10;;;;;;;-1.54;100.00;100971.84;4401413;32;20103;-72
2021/01/17 05:50:26;;;;;;;1.30;1.30;;;;;;;-1.54;100.00;100969.22;4402189;32;20111;-72
2021/01/17 05:52:56;;;;;;;1.40;1.40;;;;;;;-1.50;100.00;100975.09;4416448;32;20163;-69
2021/01/17 05:55:41;;;;;;;1.25;1.25;;;;;;;-1.47;100.00;100972.19;4419990;32;20087;-71
2021/01/17 05:58:25;;;;;;;1.23;1.23;;;;;;;-1.43;100.00;100978.03;4403291;32;20056;-72
2021/01/17 06:01:15;;;;;;;1.40;1.40;;;;;;;-1.42;100.00;100977.91;4410575;32;20150;-72
2021/01/17 06:03:48;;;;;;;1.30;1.30;;;;;;;-1.40;100.00;100975.16;4408174;32;20072;-72
2021/01/17 06:06:13;;;;;;;1.50;1.50;;;;;;;-1.49;100.00;100952.31;4400713;32;20158;-71
2021/01/17 06:08:39;;;;;;;2.22;1.77;;;;;;;-1.40;100.00;100975.16;4405125;32;20143;-71
2021/01/17 06:11:08;;;;;;;1.10;1.10;;;;;;;-1.40;100.00;100980.41;4409043;32;20084;-71
2021/01/17 06:13:36;;;;;;;1.40;1.40;;;;;;;-1.38;100.00;100991.59;4403312;32;20656;-72
2021/01/17 06:16:01;;;;;;;1.80;1.80;;;;;;;-1.36;100.00;100993.16;4401960;32;20103;-72
2021/01/17 06:18:27;;;;;;;1.40;1.40;;;;;;;-1.39;100.00;100987.34;4418530;32;20555;-72
2021/01/17 06:20:57;;;;;;;2.35;2.25;;;;;;;-1.38;100.00;100991.59;4397298;32;20575;-72
2021/01/17 06:23:23;;;;;;;2.08;1.98;;;;;;;-1.37;100.00;100985.41;4405086;32;20083;-71
2021/01/17 06:26:00;;;;;;;1.37;1.37;;;;;;;-1.44;100.00;100976.37;4407112;32;20063;-71
2021/01/17 06:28:38;;;;;;;1.40;1.40;;;;;;;-1.38;100.00;100988.97;4399533;32;20061;-71
2021/01/17 06:31:03;;;;;;;1.30;1.30;;;;;;;-1.35;100.00;100989.56;4415574;32;20076;-71
2021/01/17 06:33:29;;;;;;;1.30;1.30;;;;;;;-1.32;100.00;100993.75;4406793;32;20076;-71
2021/01/17 06:36:11;;;;;;;1.30;1.30;;;;;;;-1.30;100.00;100991.81;4401948;32;20591;-72
2021/01/17 06:38:36;;;;;;;1.35;1.35;;;;;;;-1.31;100.00;100990.19;4402807;32;20139;-72
2021/01/17 06:41:02;;;;;;;1.83;1.83;;;;;;;-1.55;100.00;100964.12;4399866;32;20346;-71
2021/01/17 06:43:27;;;;;;;1.30;1.30;;;;;;;-1.27;100.00;100994.22;4402500;32;20099;-72
2021/01/17 06:45:53;;;;;;;1.20;1.20;;;;;;;-1.27;100.00;100986.34;4407196;32;20126;-71
2021/01/17 06:48:22;;;;;;;1.30;1.30;;;;;;;-1.26;100.00;100985.38;4398889;32;20056;-71
2021/01/17 06:50:48;;;;;;;1.40;1.40;;;;;;;-1.24;100.00;100993.13;4403942;32;20610;-70
2021/01/17 06:53:23;;;;;;;1.30;1.30;;;;;;;-1.25;100.00;100988.84;4403273;32;20070;-71
2021/01/17 06:55:49;;;;;;;1.37;1.37;;;;;;;-1.30;100.00;100994.44;4405628;32;20068;-71
2021/01/17 06:58:18;;;;;;;1.30;1.30;;;;;;;-1.51;100.00;100963.75;4400123;32;20477;-72
2021/01/17 07:00:46;;;;;;;1.50;1.50;;;;;;;-1.32;100.00;100991.12;4404911;32;20187;-71
2021/01/17 07:03:14;;;;;;;1.37;1.37;;;;;;;-1.29;100.00;100998.75;4400563;32;20146;-72
2021/01/17 07:06:05;;;;;;;1.10;1.10;;;;;;;-2.08;100.00;100887.00;4408812;32;20459;-72
2021/01/17 07:09:00;;;;;;;1.25;1.25;;;;;;;-1.32;100.00;101010.31;4416415;32;20497;-72
2021/01/17 07:11:47;;;;;;;1.33;1.33;;;;;;;-1.32;100.00;101009.50;4400983;32;20118;-71
2021/01/17 07:14:13;;;;;;;1.27;1.27;;;;;;;-1.29;100.00;101008.41;4404891;32;20100;-71
2021/01/17 07:16:38;;;;;;;1.70;1.60;;;;;;;-1.31;100.00;101013.78;4388557;32;20687;-71
2021/01/17 07:19:07;;;;;;;1.20;1.20;;;;;;;-1.29;100.00;101021.53;4410223;32;20105;-72
2021/01/17 07:21:40;;;;;;;1.40;1.40;;;;;;;-1.30;100.00;101025.94;4400303;32;20064;-71
2021/01/17 07:24:06;;;;;;;1.40;1.40;;;;;;;-1.29;100.00;101032.00;4401072;32;20062;-71
2021/01/17 07:26:39;;;;;;;1.50;1.50;;;;;;;-1.28;100.00;101026.66;4391748;32;20667;-71
2021/01/17 07:29:05;;;;;;;2.53;2.33;;;;;;;-1.26;100.00;101030.00;4386575;32;20574;-71
2021/01/17 07:31:35;;;;;;;1.50;1.50;;;;;;;-1.23;100.00;101032.34;4416640;32;20065;-71
2021/01/17 07:34:01;;;;;;;1.52;1.52;;;;;;;-1.20;100.00;101037.37;4387447;32;20092;-71
2021/01/17 07:36:26;;;;;;;1.40;1.40;;;;;;;-1.17;100.00;101028.44;4388311;32;20600;-72
2021/01/17 07:38:54;;;;;;;1.42;1.42;;;;;;;-1.22;100.00;101023.53;4379386;32;20088;-72
2021/01/17 07:41:19;;;;;;;2.60;2.40;;;;;;;-1.18;100.00;101032.81;4390493;32;20953;-72
2021/01/17 07:43:45;;;;;;;1.85;1.85;;;;;;;-1.39;100.00;101008.31;4414085;32;20123;-71
2021/01/17 07:46:12;;;;;;;1.62;1.52;;;;;;;-1.23;100.00;101040.22;4389517;32;20175;-72
2021/01/17 07:48:37;;;;;;;1.60;1.60;;;;;;;-1.12;100.00;101054.28;4390106;32;21574;-71
2021/01/17 07:51:04;;;;;;;1.50;1.50;;;;;;;-1.77;100.00;100941.41;4397903;32;20683;-73
2021/01/17 07:53:36;;;;;;;1.30;1.30;;;;;;;-1.07;100.00;101060.00;4389282;32;20775;-74
2021/01/17 07:56:11;;;;;;;1.50;1.50;;;;;;;-1.05;100.00;101055.47;4411226;32;20673;-72
2021/01/17 07:58:44;;;;;;;1.37;1.37;;;;;;;-1.05;100.00;101060.69;4409351;32;20178;-74
2021/01/17 08:01:31;;;;;;;1.30;1.30;;;;;;;-1.04;100.00;101076.34;4423895;32;20707;-74
2021/01/17 08:04:05;;;;;;;1.20;1.20;;;;;;;-1.01;100.00;101070.84;4423296;32;20133;-73
2021/01/17 08:06:34;;;;;;;1.45;1.45;;;;;;;-0.98;100.00;101080.28;4411776;32;20134;-73
2021/01/17 08:09:00;;;;;;;1.40;1.40;;;;;;;-0.95;100.00;101083.50;4413955;32;20068;-73
2021/01/17 08:11:51;;;;;;;3.33;3.10;;;;;;;-0.91;100.00;101091.94;4385197;32;20144;-74
2021/01/17 08:14:36;;;;;;;1.20;1.20;;;;;;;-0.89;100.00;101095.28;4404013;32;20074;-71
2021/01/17 08:17:19;;;;;;;1.40;1.40;;;;;;;-0.89;100.00;101095.28;4383383;32;20128;-72
2021/01/17 08:19:57;;;;;;;1.45;1.45;;;;;;;-0.86;100.00;101105.53;4400622;32;20167;-71
2021/01/17 08:22:22;;;;;;;1.30;1.30;;;;;;;-0.93;100.00;101112.25;4386599;32;20841;-72
2021/01/17 08:24:55;;;;;;;1.20;1.20;;;;;;;-1.03;100.00;101096.41;4417627;32;20211;-73
2021/01/17 08:27:34;;;;;;;1.60;1.60;;;;;;;-0.92;100.00;101100.78;4386152;32;20129;-72
2021/01/17 08:32:41;;;;;;;1.12;1.12;;;;;;;-0.86;100.00;101100.28;4425860;32;20079;-73
2021/01/17 08:35:17;;;;;;;1.30;1.30;;;;;;;-0.81;100.00;101103.38;4400505;32;20477;-72
2021/01/17 08:37:43;;;;;;;1.45;1.45;;;;;;;-0.79;100.00;101106.72;4410271;32;20254;-72
2021/01/17 08:40:08;;;;;;;1.40;1.40;;;;;;;-0.71;100.00;101110.50;4390012;32;20072;-73
2021/01/17 08:42:39;;;;;;;1.45;1.45;;;;;;;-0.82;100.00;101095.63;4383920;32;20142;-73
2021/01/17 08:45:24;;;;;;;1.30;1.30;;;;;;;-0.99;100.00;101074.19;4394085;32;20179;-73
2021/01/17 08:47:57;;;;;;;1.50;1.50;;;;;;;-0.80;100.00;101097.16;4412694;32;20069;-73
2021/01/17 08:50:35;;;;;;;1.40;1.40;;;;;;;-0.71;100.00;101108.69;4400556;32;20640;-73
2021/01/17 08:53:22;;;;;;;1.40;1.40;;;;;;;-0.66;100.00;101122.28;4413726;32;20076;-73
2021/01/17 08:55:49;;;;;;;1.40;1.40;;;;;;;-2.80;100.00;100761.69;4402979;32;20068;-72
2021/01/17 08:58:26;;;;;;;3.65;2.65;;;;;;;-0.45;100.00;101127.63;4395315;32;20096;-73
2021/01/17 09:00:52;;;;;;;1.40;1.40;;;;;;;-0.41;100.00;101130.81;4410331;32;20195;-73
2021/01/17 09:03:30;;;;;;;1.20;1.20;;;;;;;-0.39;100.00;101137.59;4412506;32;20076;-72
2021/01/17 09:06:02;;;;;;;1.30;1.30;;;;;;;-0.31;100.00;101141.38;4403327;32;20156;-72
2021/01/17 09:08:28;;;;;;;1.60;1.60;;;;;;;-0.30;100.00;101136.00;4402371;32;20151;-72
2021/01/17 09:10:54;;;;;;;1.30;1.30;;;;;;;-0.24;100.00;101138.13;4389199;32;20068;-73
2021/01/17 09:13:20;;;;;;;1.30;1.30;;;;;;;-0.26;100.00;101140.06;4386966;32;20107;-73
2021/01/17 09:15:51;;;;;;;1.92;1.83;;;;;;;-0.19;100.00;101143.00;4399595;32;20072;-71
2021/01/17 09:18:25;;;;;;;1.40;1.40;;;;;;;-0.14;100.00;101145.25;4407060;32;20091;-73
2021/01/17 09:20:54;;;;;;;1.50;1.50;;;;;;;-0.05;100.00;101145.31;4390711;32;20996;-74
2021/01/17 09:23:19;;;;;;;1.60;1.60;;;;;;;-0.02;100.00;101146.84;4389260;32;20812;-73
2021/01/17 09:25:48;;;;;;;1.90;1.80;;;;;;;0.01;100.00;101151.03;4389795;32;20360;-73
2021/01/17 09:28:14;;;;;;;1.58;1.58;;;;;;;0.05;100.00;101152.44;4386897;32;20834;-73
2021/01/17 09:30:52;;;;;;;1.35;1.35;;;;;;;-0.19;100.00;101103.56;4386544;32;20725;-75
2021/01/17 09:33:18;;;;;;;1.30;1.30;;;;;;;0.11;100.00;101151.94;4388539;32;20122;-74
2021/01/17 09:35:44;;;;;;;1.52;1.52;;;;;;;0.15;100.00;101158.59;4397950;32;20150;-73
2021/01/17 09:38:20;;;;;;;1.60;1.60;;;;;;;0.11;100.00;101165.91;4394152;32;20086;-73
2021/01/17 09:40:56;;;;;;;1.40;1.40;;;;;;;-0.10;100.00;101126.47;4386189;32;20187;-74
2021/01/17 09:43:22;;;;;;;1.58;1.58;;;;;;;0.21;100.00;101173.88;4398201;32;20645;-74
2021/01/17 09:45:55;;;;;;;1.25;1.25;;;;;;;0.23;100.00;101171.94;4385234;32;20091;-74
2021/01/17 09:48:21;;;;;;;1.40;1.40;;;;;;;0.34;100.00;101177.09;4387909;32;20062;-73
2021/01/17 09:50:46;;;;;;;1.60;1.60;;;;;;;0.41;100.00;101177.44;4383493;32;20722;-74
2021/01/17 09:53:11;;;;;;;1.98;1.87;;;;;;;-1.57;100.00;100864.56;4389856;32;20065;-75
2021/01/17 09:55:41;;;;;;;1.60;1.60;;;;;;;0.15;100.00;101134.91;4386134;32;20080;-74
2021/01/17 09:58:07;;;;;;;1.65;1.65;;;;;;;0.32;100.00;101197.47;4385478;32;20062;-73
2021/01/17 10:00:32;;;;;;;1.80;1.80;;;;;;;-0.66;100.00;101026.91;4400509;32;21950;-75
2021/01/17 10:02:58;;;;;;;1.60;1.60;;;;;;;-0.14;100.00;101111.06;4387258;32;20091;-74
2021/01/17 10:05:30;;;;;;;1.50;1.50;;;;;;;0.35;100.00;101207.75;4383922;32;20625;-74
2021/01/17 10:08:02;;;;;;;2.08;1.98;;;;;;;0.10;100.00;101180.00;4395733;32;20072;-74
2021/01/17 10:10:27;;;;;;;1.67;1.67;;;;;;;0.22;100.00;101214.97;4398167;32;20068;-75
2021/01/17 10:12:53;;;;;;;2.17;2.08;;;;;;;0.27;100.00;101220.69;4385384;32;20609;-72
2021/01/17 10:15:19;;;;;;;1.30;1.30;;;;;;;0.17;100.00;101217.16;4404633;32;20065;-75
2021/01/17 10:17:47;;;;;;;1.40;1.40;;;;;;;-0.15;100.00;101181.22;4402075;32;20064;-73
2021/01/17 10:20:25;;;;;;;1.40;1.40;;;;;;;-0.05;100.00;101210.25;4404047;32;20954;-74
2021/01/17 10:23:00;;;;;;;1.60;1.60;;;;;;;0.05;100.00;101210.28;4399227;32;20081;-75
2021/01/17 10:25:26;;;;;;;1.65;1.62;;;;;;;-0.27;100.00;101169.09;4427823;32;20179;-74
2021/01/17 10:28:07;;;;;;;1.92;1.83;;;;;;;0.07;100.00;101214.47;4395041;32;20716;-73
2021/01/17 10:30:34;;;;;;;1.55;1.55;;;;;;;0.06;100.00;101217.25;4397857;32;20444;-74
2021/01/17 10:33:06;;;;;;;1.55;1.55;;;;;;;0.07;100.00;101224.16;4419320;32;20094;-73
2021/01/17 10:35:33;;;;;;;1.60;1.60;;;;;;;0.08;100.00;101220.56;4410166;32;20434;-73
2021/01/17 10:38:01;;;;;;;2.03;1.92;;;;;;;0.08;100.00;101220.56;4399795;32;20546;-73
2021/01/17 10:40:27;;;;;;;1.52;1.52;;;;;;;0.06;100.00;101223.31;4397540;32;20079;-73
2021/01/17 10:42:53;;;;;;;1.67;1.67;;;;;;;0.08;100.00;101229.28;4398747;32;20647;-74
2021/01/17 10:45:18;;;;;;;1.35;1.35;;;;;;;0.09;100.00;101238.84;4393393;32;20460;-77
2021/01/17 10:48:05;;;;;;;1.50;1.50;;;;;;;0.11;100.00;101231.66;4398547;32;20207;-75
2021/01/17 10:50:47;;;;;;;1.58;1.58;;;;;;;0.17;100.00;101233.81;4417291;32;20083;-75
2021/01/17 10:53:18;;;;;;;1.50;1.50;;;;;;;0.05;100.00;101218.19;4414600;32;20472;-74
2021/01/17 10:55:44;;;;;;;1.75;1.65;;;;;;;-0.13;100.00;101189.81;4407396;32;20163;-75
2021/01/17 10:58:13;;;;;;;1.35;1.35;;;;;;;0.01;100.00;101227.31;4416651;32;20069;-75
2021/01/17 11:00:38;;;;;;;1.52;1.52;;;;;;;-0.36;100.00;101157.56;4402529;32;20088;-75
2021/01/17 11:03:08;;;;;;;1.50;1.50;;;;;;;-0.03;100.00;101218.84;4405624;32;20173;-75
2021/01/17 11:05:33;;;;;;;1.50;1.50;;;;;;;0.22;100.00;101248.34;4405839;32;20073;-75
2021/01/17 11:07:59;;;;;;;2.22;2.03;;;;;;;-0.05;100.00;101213.69;4406499;32;20076;-74
2021/01/17 11:10:25;;;;;;;2.17;2.08;;;;;;;0.22;100.00;101295.72;4404631;32;20123;-73
2021/01/17 11:12:50;;;;;;;1.60;1.60;;;;;;;0.23;100.00;101256.12;4406651;32;20170;-73
2021/01/17 11:15:17;;;;;;;1.60;1.60;;;;;;;-0.07;100.00;101213.00;4405749;32;20084;-74
2021/01/17 11:17:43;;;;;;;1.40;1.40;;;;;;;0.25;100.00;101259.47;4409769;32;20582;-74
2021/01/17 11:20:09;;;;;;;2.03;1.92;;;;;;;0.23;100.00;101269.28;4412563;32;20106;-73
2021/01/17 11:22:34;;;;;;;1.40;1.40;;;;;;;0.13;100.00;101237.63;4405686;32;20072;-73
2021/01/17 11:25:00;;;;;;;1.60;1.60;;;;;;;0.23;100.00;101250.87;4408138;32;20118;-76
2021/01/17 11:27:35;;;;;;;2.92;2.70;;;;;;;0.38;100.00;101254.03;4404367;32;20081;-73
2021/01/17 11:30:01;;;;;;;1.60;1.60;;;;;;;0.43;100.00;101251.84;4405150;32;20207;-73
2021/01/17 11:32:36;;;;;;;1.60;1.50;;;;;;;0.30;100.00;101233.59;4406106;32;20075;-73